Time;durP1;ratioP1;P1;durP2;ratioP2;P2;SDS_P1;SDS_P2;PMS_P1;PMS_P2;Temp;Humidity;BMP_temperature;BMP_pressure;BME280_temperature;BME280_humidity;BME280_pressure;Samples;Min_cycle;Max_cycle;Signal;HPM_P1;HPM_P2
2021/07/02 00:02:05;;;;;;;10.60;9.10;;;;;;;25.62;52.65;100713.75;5034764;28;20083;-80
2021/07/02 00:04:32;;;;;;;12.27;9.55;;;;;;;25.62;52.71;100716.44;5034776;28;20446;-79
2021/07/02 00:06:57;;;;;;;10.48;8.93;;;;;;;25.60;52.44;100714.97;5035540;28;20364;-79
2021/07/02 00:09:23;;;;;;;12.65;9.43;;;;;;;25.62;52.43;100712.94;5050251;28;20113;-80
2021/07/02 00:11:49;;;;;;;10.48;9.30;;;;;;;25.60;52.33;100704.22;5054566;28;20032;-80
2021/07/02 00:14:14;;;;;;;10.07;8.98;;;;;;;25.58;52.36;100707.09;5054456;28;20021;-80
2021/07/02 00:16:40;;;;;;;11.20;9.40;;;;;;;25.61;52.65;100703.19;5054586;28;20459;-80
2021/07/02 00:19:05;;;;;;;11.32;10.13;;;;;;;25.61;52.56;100705.88;5054427;28;20082;-80
2021/07/02 00:21:31;;;;;;;9.93;8.90;;;;;;;25.61;52.60;100698.66;5047448;28;20491;-80
2021/07/02 00:23:56;;;;;;;12.77;9.30;;;;;;;25.61;52.55;100693.28;5034048;28;20026;-80
2021/07/02 00:26:21;;;;;;;11.00;9.75;;;;;;;25.63;52.78;100695.75;5033546;28;20376;-78
2021/07/02 00:28:47;;;;;;;9.90;8.90;;;;;;;25.61;52.60;100693.28;5034078;28;20383;-78
2021/07/02 00:31:12;;;;;;;13.52;10.57;;;;;;;25.61;52.56;100698.66;5034322;28;20051;-78
2021/07/02 00:33:37;;;;;;;13.18;9.75;;;;;;;25.61;52.49;100695.97;5034028;28;20061;-78
2021/07/02 00:36:03;;;;;;;12.52;11.13;;;;;;;25.59;52.57;100692.63;5036620;28;20111;-78
2021/07/02 00:38:29;;;;;;;11.15;10.00;;;;;;;25.58;52.61;100690.97;5033884;28;20029;-78
2021/07/02 00:40:54;;;;;;;13.32;9.93;;;;;;;25.59;52.60;100683.72;5034247;28;20029;-78
2021/07/02 00:43:20;;;;;;;14.93;10.95;;;;;;;25.57;52.65;100686.59;5033966;28;20514;-78
2021/07/02 00:45:46;;;;;;;11.15;9.65;;;;;;;25.53;52.80;100688.88;5033928;28;20044;-78
2021/07/02 00:48:11;;;;;;;11.18;9.75;;;;;;;25.54;53.44;100681.63;5033872;28;20036;-78
2021/07/02 00:50:36;;;;;;;12.35;10.45;;;;;;;25.47;52.80;100678.06;5033852;28;20032;-78
2021/07/02 00:53:04;;;;;;;12.15;10.20;;;;;;;25.55;52.90;100683.28;5033918;28;20376;-78
2021/07/02 00:55:30;;;;;;;11.35;9.95;;;;;;;25.50;53.09;100681.19;5034059;28;20380;-78
2021/07/02 00:57:57;;;;;;;11.05;9.43;;;;;;;25.56;52.50;100671.50;5033708;28;20025;-78
2021/07/02 01:00:23;;;;;;;10.73;9.63;;;;;;;25.46;52.86;100671.84;5033707;28;20503;-79
2021/07/02 01:02:49;;;;;;;11.32;10.20;;;;;;;25.52;52.48;100672.94;5033574;28;20037;-79
2021/07/02 01:05:14;;;;;;;12.15;10.02;;;;;;;25.51;52.54;100665.88;5033453;28;20022;-79
2021/07/02 01:07:41;;;;;;;17.30;11.05;;;;;;;25.54;52.84;100660.13;5051157;28;20048;-79
2021/07/02 01:10:07;;;;;;;13.45;11.30;;;;;;;25.49;52.83;100665.25;5053623;28;20102;-79
2021/07/02 01:12:34;;;;;;;11.65;10.45;;;;;;;25.48;52.66;100663.59;5052608;28;20471;-78
2021/07/02 01:14:59;;;;;;;13.45;11.32;;;;;;;25.45;52.52;100661.28;5041611;28;20048;-79
2021/07/02 01:17:24;;;;;;;14.90;11.32;;;;;;;25.43;52.85;100652.59;5053566;28;20162;-78
2021/07/02 01:19:54;;;;;;;13.02;11.05;;;;;;;25.51;52.63;100658.66;5043362;28;20118;-79
2021/07/02 01:22:26;;;;;;;16.25;11.80;;;;;;;25.40;52.81;100661.06;5034575;28;20022;-79
2021/07/02 01:24:56;;;;;;;13.48;11.20;;;;;;;25.47;52.79;100660.06;5036429;28;20042;-78
2021/07/02 01:27:22;;;;;;;15.88;11.27;;;;;;;25.42;52.50;100654.47;5033053;28;20036;-78
2021/07/02 01:29:49;;;;;;;14.38;11.18;;;;;;;25.41;52.69;100652.78;5032856;28;20369;-78
2021/07/02 01:32:15;;;;;;;16.13;11.35;;;;;;;25.37;52.76;100651.50;5045807;28;20378;-78
2021/07/02 01:34:41;;;;;;;13.80;10.45;;;;;;;25.32;52.92;100649.44;5040940;28;20033;-78
2021/07/02 01:37:08;;;;;;;15.77;11.35;;;;;;;25.32;53.24;100648.59;5046459;28;20024;-78
2021/07/02 01:39:34;;;;;;;12.25;10.73;;;;;;;25.31;52.85;100642.38;5052832;28;20036;-78
2021/07/02 01:41:59;;;;;;;13.38;10.85;;;;;;;25.29;52.91;100643.59;5052536;28;20021;-80
2021/07/02 01:44:24;;;;;;;15.50;11.68;;;;;;;25.29;53.21;100639.06;5051451;28;20033;-78
2021/07/02 01:46:50;;;;;;;13.52;11.55;;;;;;;25.29;53.19;100649.81;5033450;28;20037;-78
2021/07/02 01:49:16;;;;;;;14.85;11.88;;;;;;;25.29;53.28;100639.06;5033936;28;20025;-78
2021/07/02 01:51:41;;;;;;;17.75;11.15;;;;;;;25.28;53.19;100636.59;5051919;28;20064;-78
2021/07/02 01:54:07;;;;;;;12.75;11.43;;;;;;;25.28;53.50;100636.59;5052495;28;20028;-78
2021/07/02 01:56:33;;;;;;;13.02;11.40;;;;;;;25.27;52.88;100635.72;5052768;28;20025;-78
2021/07/02 01:58:58;;;;;;;12.07;10.80;;;;;;;25.27;53.26;100634.91;5052739;28;20511;-78
2021/07/02 02:01:23;;;;;;;14.30;11.15;;;;;;;25.30;53.16;100635.34;5052595;28;20036;-78
2021/07/02 02:03:52;;;;;;;12.43;10.80;;;;;;;25.27;53.31;100634.91;5052019;28;20205;-78
2021/07/02 02:06:18;;;;;;;15.20;11.98;;;;;;;25.26;52.99;100628.72;5031124;28;20116;-77
2021/07/02 02:08:43;;;;;;;12.68;10.57;;;;;;;25.26;53.37;100628.72;5039629;28;20116;-77
2021/07/02 02:11:08;;;;;;;12.70;10.55;;;;;;;25.25;53.02;100616.28;5051523;28;20032;-78
2021/07/02 02:13:34;;;;;;;12.35;11.15;;;;;;;25.26;53.21;100623.34;5051768;28;20112;-78
2021/07/02 02:15:59;;;;;;;13.25;11.07;;;;;;;25.24;53.32;100613.81;5051427;28;20471;-78
2021/07/02 02:18:24;;;;;;;14.00;10.35;;;;;;;25.24;52.75;100613.81;5051282;28;20537;-78
2021/07/02 02:20:50;;;;;;;13.85;11.18;;;;;;;25.07;53.45;100614.06;5051711;28;20855;-77
2021/07/02 02:23:15;;;;;;;12.95;11.55;;;;;;;25.18;53.29;100599.28;5047367;28;20057;-78
2021/07/02 02:25:40;;;;;;;13.27;11.82;;;;;;;25.18;53.18;100607.34;5040056;28;20017;-78
2021/07/02 02:28:06;;;;;;;13.57;11.75;;;;;;;25.18;53.38;100606.47;5052120;28;20051;-78
2021/07/02 02:30:35;;;;;;;11.77;10.60;;;;;;;25.17;52.92;100605.66;5052180;28;20036;-78
2021/07/02 02:33:02;;;;;;;12.25;10.80;;;;;;;25.17;53.23;100602.16;5051711;28;20020;-78
2021/07/02 02:35:29;;;;;;;14.43;11.60;;;;;;;25.18;53.11;100609.16;5051664;28;20021;-78
2021/07/02 02:37:54;;;;;;;12.77;10.75;;;;;;;25.17;53.20;100608.34;5051670;28;20028;-78
2021/07/02 02:40:20;;;;;;;11.93;10.38;;;;;;;25.17;53.28;100602.97;5049680;28;20057;-78
2021/07/02 02:42:45;;;;;;;15.48;12.18;;;;;;;25.17;53.01;100602.16;5051443;28;20025;-78
2021/07/02 02:45:11;;;;;;;12.38;11.10;;;;;;;25.13;53.06;100607.06;5051810;28;20075;-78
2021/07/02 02:47:36;;;;;;;12.52;11.07;;;;;;;25.12;53.08;100600.06;5051389;28;20542;-78
2021/07/02 02:50:04;;;;;;;12.63;11.10;;;;;;;25.10;53.35;100594.88;5051257;28;20040;-78
2021/07/02 02:52:29;;;;;;;12.07;10.57;;;;;;;25.12;53.21;100602.75;5051257;28;20021;-78
2021/07/02 02:54:54;;;;;;;10.77;9.68;;;;;;;25.12;53.05;100594.69;5050277;28;20075;-78
2021/07/02 02:57:20;;;;;;;13.82;11.60;;;;;;;25.09;53.21;100605.81;5051501;28;20040;-77
2021/07/02 02:59:45;;;;;;;13.55;11.35;;;;;;;25.09;53.19;100598.56;5051603;28;20047;-77
2021/07/02 03:02:11;;;;;;;11.75;10.55;;;;;;;25.08;53.32;100599.59;5051346;28;20029;-78
2021/07/02 03:04:36;;;;;;;13.10;11.10;;;;;;;25.09;53.06;100600.44;5051603;28;20021;-78
2021/07/02 03:07:05;;;;;;;12.93;10.68;;;;;;;25.07;53.44;100591.75;5051732;28;20060;-77
2021/07/02 03:09:31;;;;;;;13.38;11.02;;;;;;;25.05;53.09;100591.09;5035469;28;20044;-78
2021/07/02 03:11:56;;;;;;;13.27;11.20;;;;;;;25.04;53.16;100581.38;5031657;28;20384;-77
2021/07/02 03:14:22;;;;;;;12.30;11.00;;;;;;;25.02;53.17;100588.78;5031520;28;20400;-78
2021/07/02 03:16:48;;;;;;;12.38;10.35;;;;;;;25.03;53.47;100590.47;5031514;28;20037;-78
2021/07/02 03:19:15;;;;;;;12.25;10.45;;;;;;;25.02;53.08;100583.41;5031636;28;20021;-78
2021/07/02 03:21:40;;;;;;;13.20;11.63;;;;;;;25.01;53.15;100587.97;5031398;28;20064;-78
2021/07/02 03:24:06;;;;;;;13.80;11.20;;;;;;;24.99;53.69;100591.88;5045453;28;20033;-78
2021/07/02 03:26:32;;;;;;;12.05;10.27;;;;;;;24.93;53.25;100580.88;5051692;28;20032;-78
2021/07/02 03:28:57;;;;;;;13.68;10.32;;;;;;;24.98;53.14;100584.84;5051198;28;20076;-78
2021/07/02 03:31:23;;;;;;;13.13;11.07;;;;;;;24.99;53.52;100590.03;5051036;28;20029;-78
2021/07/02 03:33:48;;;;;;;13.10;11.68;;;;;;;24.97;53.11;100589.38;5051223;28;20104;-78
2021/07/02 03:36:14;;;;;;;12.38;11.02;;;;;;;24.99;53.24;100589.19;5051256;28;20060;-78
2021/07/02 03:38:39;;;;;;;12.40;10.63;;;;;;;24.99;53.26;100589.19;5037948;28;20045;-78
2021/07/02 03:41:04;;;;;;;12.73;10.20;;;;;;;24.97;53.45;100585.88;5047838;28;20191;-78
2021/07/02 03:43:30;;;;;;;11.82;10.55;;;;;;;24.98;53.21;100584.84;5051156;28;20029;-78
2021/07/02 03:45:55;;;;;;;12.75;11.32;;;;;;;24.97;53.12;100588.56;5050958;28;20067;-77
2021/07/02 03:48:20;;;;;;;12.77;11.02;;;;;;;24.96;53.14;100594.94;5051065;28;20141;-78
2021/07/02 03:50:46;;;;;;;13.00;11.05;;;;;;;24.92;53.32;100600.72;5051010;28;20032;-78
2021/07/02 03:53:11;;;;;;;11.73;10.52;;;;;;;24.95;53.36;100602.19;5044622;28;20087;-78
2021/07/02 03:55:36;;;;;;;12.07;10.73;;;;;;;24.96;53.33;100598.47;5031003;28;20025;-78
2021/07/02 03:58:03;;;;;;;14.48;10.68;;;;;;;24.94;53.36;100587.94;5031424;28;20199;-77
2021/07/02 04:00:30;;;;;;;13.25;10.38;;;;;;;24.94;53.07;100597.81;5031043;28;20541;-78
2021/07/02 04:02:55;;;;;;;12.07;10.18;;;;;;;24.93;53.21;100599.69;5034762;28;20057;-78
2021/07/02 04:05:21;;;;;;;11.52;10.32;;;;;;;24.90;53.27;100597.41;5034659;28;20494;-77
2021/07/02 04:07:46;;;;;;;12.32;10.68;;;;;;;24.78;53.63;100601.59;5038888;28;20036;-78
2021/07/02 04:10:11;;;;;;;14.18;11.32;;;;;;;24.74;53.74;100603.03;5054717;28;20036;-78
2021/07/02 04:12:37;;;;;;;11.88;10.63;;;;;;;24.74;53.97;100611.94;5049234;28;20374;-78
2021/07/02 04:15:05;;;;;;;12.23;10.98;;;;;;;24.73;53.85;100606.75;5046724;28;20036;-78
2021/07/02 04:17:30;;;;;;;12.05;10.73;;;;;;;24.86;53.49;100604.19;5052771;28;20017;-78
2021/07/02 04:19:55;;;;;;;11.30;9.55;;;;;;;24.91;53.48;100603.59;5054417;28;20040;-80
2021/07/02 04:22:21;;;;;;;13.23;10.90;;;;;;;24.89;53.02;100605.66;5038666;28;20460;-78
2021/07/02 04:24:46;;;;;;;12.95;11.15;;;;;;;24.89;53.50;100603.78;5040299;28;20471;-78
2021/07/02 04:27:13;;;;;;;13.90;10.23;;;;;;;24.90;53.17;100609.97;5038015;28;20379;-78
2021/07/02 04:29:39;;;;;;;16.13;10.80;;;;;;;24.87;53.18;100616.56;5034529;28;20021;-78
2021/07/02 04:32:05;;;;;;;16.70;10.70;;;;;;;24.88;53.15;100615.56;5048820;28;20043;-78
2021/07/02 04:34:30;;;;;;;15.93;10.88;;;;;;;24.89;53.54;100617.22;5053924;28;20025;-78
2021/07/02 04:36:56;;;;;;;14.35;10.90;;;;;;;24.58;53.91;100619.41;5054052;28;20472;-78
2021/07/02 04:39:22;;;;;;;13.60;10.55;;;;;;;24.82;53.36;100621.72;5053832;28;20083;-78
2021/07/02 04:41:47;;;;;;;13.05;9.70;;;;;;;24.84;53.62;100619.66;5053970;28;20051;-78
2021/07/02 04:44:13;;;;;;;12.40;10.63;;;;;;;24.84;53.44;100619.66;5052609;28;20474;-78
2021/07/02 04:46:38;;;;;;;11.55;10.30;;;;;;;24.85;53.37;100618.63;5045587;28;20033;-78
2021/07/02 04:49:04;;;;;;;14.55;10.15;;;;;;;24.88;53.33;100620.09;5033878;28;20041;-78
2021/07/02 04:51:29;;;;;;;15.40;10.52;;;;;;;24.86;53.19;100619.44;5034492;28;20056;-78
2021/07/02 04:53:55;;;;;;;12.27;9.77;;;;;;;24.91;53.08;100608.97;5040989;28;20036;-78
2021/07/02 04:56:20;;;;;;;12.52;10.30;;;;;;;24.92;53.40;100606.09;5052829;28;20025;-78
2021/07/02 04:58:51;;;;;;;11.18;9.98;;;;;;;24.94;52.91;100603.19;5053322;28;20395;-78
2021/07/02 05:01:17;;;;;;;12.57;10.57;;;;;;;24.96;53.09;100605.69;5052612;28;20274;-78
2021/07/02 05:03:42;;;;;;;14.70;9.25;;;;;;;24.85;53.50;100609.75;5048336;28;20295;-78
2021/07/02 05:06:08;;;;;;;12.07;9.90;;;;;;;24.73;53.57;100602.19;5052680;28;20630;-78
2021/07/02 05:08:33;;;;;;;12.32;9.82;;;;;;;24.81;53.22;100609.28;5052496;28;20417;-78
2021/07/02 05:10:59;;;;;;;11.65;8.70;;;;;;;24.81;53.46;100606.59;5051399;28;20025;-78
2021/07/02 05:13:24;;;;;;;13.98;9.30;;;;;;;24.83;53.46;100609.09;5034173;28;20017;-78
2021/07/02 05:15:50;;;;;;;11.88;9.82;;;;;;;24.84;53.08;100608.06;5040357;28;20458;-78
2021/07/02 05:18:15;;;;;;;11.45;10.15;;;;;;;24.86;53.38;100617.63;5038956;28;20105;-78
2021/07/02 05:20:44;;;;;;;12.55;9.80;;;;;;;24.85;53.09;100618.63;5039005;28;20077;-79
2021/07/02 05:23:10;;;;;;;15.10;9.88;;;;;;;24.84;53.09;100619.66;5049020;28;20076;-78
2021/07/02 05:25:35;;;;;;;10.95;9.82;;;;;;;24.84;53.31;100616.97;5047280;28;20021;-79
2021/07/02 05:28:01;;;;;;;10.93;8.82;;;;;;;24.85;53.30;100615.13;5043303;28;20407;-79
2021/07/02 05:30:27;;;;;;;14.27;9.13;;;;;;;24.87;53.43;100619.25;5047626;28;20155;-79
2021/07/02 05:32:52;;;;;;;15.77;9.25;;;;;;;24.88;53.11;100620.94;5046912;28;20078;-78
2021/07/02 05:35:18;;;;;;;12.32;9.52;;;;;;;24.91;53.41;100615.16;5050065;28;20482;-79
2021/07/02 05:37:44;;;;;;;12.18;9.25;;;;;;;24.96;54.00;100619.13;5051909;28;20029;-86
2021/07/02 05:40:12;;;;;;;12.80;9.32;;;;;;;24.95;53.74;100620.97;5042195;28;20021;-75
2021/07/02 05:42:38;;;;;;;16.90;9.82;;;;;;;25.00;53.80;100625.75;5047047;28;20022;-77
2021/07/02 05:45:04;;;;;;;10.65;8.95;;;;;;;25.07;54.34;100623.97;5047918;28;20068;-77
2021/07/02 05:47:30;;;;;;;10.63;9.40;;;;;;;25.11;54.28;100625.25;5050293;28;20119;-81
2021/07/02 05:49:55;;;;;;;11.65;9.27;;;;;;;25.17;54.36;100624.47;5044816;28;20116;-77
2021/07/02 05:52:20;;;;;;;14.48;9.05;;;;;;;25.21;53.91;100624.91;5046720;28;20030;-83
2021/07/02 05:54:48;;;;;;;12.32;9.32;;;;;;;25.25;54.04;100627.03;5039832;28;20037;-76
2021/07/02 05:57:14;;;;;;;14.32;9.95;;;;;;;25.24;53.82;100622.69;5047151;28;20036;-76
2021/07/02 05:59:39;;;;;;;14.88;9.27;;;;;;;25.28;53.81;100623.16;5042174;28;20021;-77
2021/07/02 06:02:04;;;;;;;12.45;8.65;;;;;;;25.45;53.28;100629.03;5041592;28;20028;-77
2021/07/02 06:04:30;;;;;;;12.32;9.95;;;;;;;25.46;53.17;100630.72;5050352;28;20056;-77
2021/07/02 06:06:55;;;;;;;14.88;9.18;;;;;;;25.48;52.58;100626.78;5051232;28;20036;-77
2021/07/02 06:09:20;;;;;;;12.68;8.95;;;;;;;25.53;52.83;100628.88;5036099;28;20399;-76
2021/07/02 06:11:46;;;;;;;12.18;9.65;;;;;;;25.61;52.31;100634.13;5045453;28;20032;-77
2021/07/02 06:14:11;;;;;;;10.93;9.10;;;;;;;25.70;51.93;100629.41;5056826;28;20036;-77
2021/07/02 06:16:36;;;;;;;13.98;9.23;;;;;;;25.78;51.98;100626.56;5041182;28;20024;-78
2021/07/02 06:19:02;;;;;;;14.00;9.45;;;;;;;25.84;51.32;100623.06;5039918;28;20029;-77
2021/07/02 06:21:28;;;;;;;11.48;9.05;;;;;;;25.96;51.01;100627.91;5037751;28;20037;-77
2021/07/02 06:23:53;;;;;;;13.30;9.82;;;;;;;26.09;51.08;100633.34;5038047;28;20107;-77
2021/07/02 06:26:18;;;;;;;13.68;9.02;;;;;;;26.22;50.49;100627.19;5036231;28;20025;-78
2021/07/02 06:28:44;;;;;;;14.60;8.90;;;;;;;26.33;50.24;100629.28;5031940;28;20021;-77
2021/07/02 06:31:09;;;;;;;13.07;9.07;;;;;;;26.22;50.50;100627.19;5031345;28;20021;-77
2021/07/02 06:33:35;;;;;;;10.60;8.43;;;;;;;26.49;49.89;100634.31;5032143;28;20105;-77
2021/07/02 06:36:02;;;;;;;15.23;8.25;;;;;;;26.57;49.41;100630.59;5046781;28;20017;-77
2021/07/02 06:38:27;;;;;;;13.48;7.50;;;;;;;26.63;49.26;100628.97;5032501;28;20061;-79
2021/07/02 06:40:52;;;;;;;15.10;7.20;;;;;;;26.81;49.11;100625.69;5019629;28;20060;-83
2021/07/02 06:43:19;;;;;;;7.97;6.57;;;;;;;26.97;48.66;100627.97;5030620;28;20060;-78
2021/07/02 06:45:44;;;;;;;13.43;7.05;;;;;;;27.15;48.05;100624.66;5049246;28;20036;-78
2021/07/02 06:48:09;;;;;;;7.78;6.90;;;;;;;27.05;47.35;100624.25;5032052;28;20069;-79
2021/07/02 06:50:38;;;;;;;11.65;6.78;;;;;;;27.07;47.78;100631.09;5032887;28;20064;-78
2021/07/02 06:53:05;;;;;;;17.23;6.65;;;;;;;27.33;46.61;100624.06;5049025;28;20114;-79
2021/07/02 06:55:32;;;;;;;10.85;6.57;;;;;;;27.47;46.00;100623.00;5045319;28;20395;-81
2021/07/02 06:57:58;;;;;;;13.90;6.57;;;;;;;27.69;46.09;100615.47;5046848;28;20029;-77
2021/07/02 07:00:24;;;;;;;14.38;6.05;;;;;;;27.83;45.66;100616.25;5051554;28;20029;-76
2021/07/02 07:02:50;;;;;;;11.88;6.05;;;;;;;27.99;45.68;100614.97;5043430;28;20029;-86
2021/07/02 07:05:16;;;;;;;11.85;6.03;;;;;;;28.23;45.63;100610.72;5031530;28;20546;-79
2021/07/02 07:07:42;;;;;;;10.40;5.47;;;;;;;28.28;45.72;100607.38;5032559;28;20104;-79
2021/07/02 07:10:08;;;;;;;10.73;5.57;;;;;;;28.33;45.49;100607.53;5034392;28;20025;-78
2021/07/02 07:12:34;;;;;;;8.60;5.25;;;;;;;28.38;45.19;100605.03;5034014;28;20071;-79
2021/07/02 07:14:59;;;;;;;8.07;5.20;;;;;;;28.43;45.19;100607.06;5031382;28;20033;-79
2021/07/02 07:17:25;;;;;;;14.10;5.22;;;;;;;28.51;45.37;100619.53;5031122;28;20021;-79
2021/07/02 07:19:51;;;;;;;8.98;4.68;;;;;;;28.61;44.71;100619.88;5048541;28;20033;-78
2021/07/02 07:22:16;;;;;;;8.05;5.18;;;;;;;28.64;45.19;100617.56;5046309;28;20429;-79
2021/07/02 07:24:42;;;;;;;12.88;4.90;;;;;;;28.68;45.13;100621.47;5038304;28;20025;-79
2021/07/02 07:27:07;;;;;;;11.60;5.40;;;;;;;28.69;44.79;100619.59;5048657;28;20028;-80
2021/07/02 07:29:33;;;;;;;9.38;4.88;;;;;;;28.44;45.70;100614.97;5039053;28;20060;-78
2021/07/02 07:31:58;;;;;;;8.18;5.18;;;;;;;28.25;46.05;100630.22;5031415;28;20041;-79
2021/07/02 07:34:32;;;;;;;13.40;4.80;;;;;;;28.29;45.96;100626.03;5040929;28;20029;-79
2021/07/02 07:37:01;;;;;;;9.52;5.47;;;;;;;28.29;46.41;100620.63;5039802;28;20506;-80
2021/07/02 07:39:27;;;;;;;9.25;5.57;;;;;;;28.05;46.02;100630.31;5041785;28;20047;-80
2021/07/02 07:41:52;;;;;;;17.25;5.93;;;;;;;28.12;44.64;100626.75;5048024;28;20519;-80
2021/07/02 07:44:17;;;;;;;24.35;6.78;;;;;;;28.14;43.61;100624.66;5038862;28;20056;-79
2021/07/02 07:46:43;;;;;;;11.50;5.88;;;;;;;28.24;43.44;100619.66;5035224;28;20091;-79
2021/07/02 07:49:08;;;;;;;12.45;6.55;;;;;;;28.14;42.93;100627.38;5038273;28;20037;-79
2021/07/02 07:51:37;;;;;;;14.85;5.95;;;;;;;28.31;42.82;100623.13;5033557;28;20079;-79
2021/07/02 07:54:03;;;;;;;11.05;5.43;;;;;;;28.54;43.24;100625.31;5036200;28;20102;-79
2021/07/02 07:56:30;;;;;;;15.52;5.30;;;;;;;28.64;43.42;100622.97;5049438;28;20116;-79
2021/07/02 07:58:56;;;;;;;14.00;5.55;;;;;;;28.77;43.43;100626.59;5034723;28;20075;-79
2021/07/02 08:01:21;;;;;;;7.40;4.78;;;;;;;28.85;43.48;100629.88;5034979;28;20443;-79
2021/07/02 08:03:47;;;;;;;5.55;4.65;;;;;;;28.86;43.58;100628.00;5035067;28;20057;-79
2021/07/02 08:06:12;;;;;;;12.88;5.10;;;;;;;28.98;43.40;100625.41;5034614;28;20026;-79
2021/07/02 08:08:38;;;;;;;8.60;4.60;;;;;;;29.07;43.29;100626.81;5034640;28;20357;-80
2021/07/02 08:11:03;;;;;;;7.10;4.60;;;;;;;28.91;43.88;100632.75;5037784;28;20025;-79
2021/07/02 08:13:29;;;;;;;6.63;4.68;;;;;;;28.90;43.58;100628.41;5054235;28;20032;-79
2021/07/02 08:15:56;;;;;;;7.20;4.30;;;;;;;28.71;44.11;100625.59;5035501;28;20033;-79
2021/07/02 08:18:22;;;;;;;9.35;4.72;;;;;;;28.51;44.32;100624.94;5034540;28;20033;-79
2021/07/02 08:20:47;;;;;;;9.30;4.10;;;;;;;28.71;44.04;100619.38;5041266;28;20471;-79
2021/07/02 08:23:13;;;;;;;7.15;4.22;;;;;;;28.94;43.66;100613.41;5054492;28;20483;-79
2021/07/02 08:25:39;;;;;;;9.13;4.60;;;;;;;29.11;43.52;100624.47;5054653;28;20024;-79
2021/07/02 08:30:50;;;;;;;7.88;4.47;;;;;;;29.34;43.04;100618.47;5054627;28;20486;-79
2021/07/02 08:33:19;;;;;;;5.78;4.60;;;;;;;29.35;43.08;100614.72;5054053;28;20025;-79
2021/07/02 08:35:45;;;;;;;8.15;4.35;;;;;;;29.40;43.17;100612.16;5047022;28;20028;-79
2021/07/02 08:38:11;;;;;;;8.50;4.38;;;;;;;29.38;43.05;100606.97;5034294;28;20026;-79
2021/07/02 08:40:36;;;;;;;7.18;4.47;;;;;;;29.42;43.04;100607.34;5034337;28;20464;-80
2021/07/02 08:43:02;;;;;;;7.35;4.85;;;;;;;29.47;42.73;100596.69;5034160;28;20041;-79
2021/07/02 08:45:27;;;;;;;7.15;4.70;;;;;;;29.51;42.58;100606.03;5034107;28;20029;-79
2021/07/02 08:47:54;;;;;;;6.35;4.43;;;;;;;29.56;42.62;100602.63;5032831;28;20033;-79
2021/07/02 08:50:22;;;;;;;7.55;4.20;;;;;;;29.57;42.60;100597.00;5043284;28;20086;-79
2021/07/02 08:52:48;;;;;;;7.22;4.20;;;;;;;29.58;42.60;100597.81;5053721;28;20047;-79
2021/07/02 08:55:13;;;;;;;6.82;4.28;;;;;;;29.56;42.43;100598.06;5053824;28;20471;-79
2021/07/02 08:57:39;;;;;;;5.43;4.38;;;;;;;29.65;42.68;100601.28;5052713;28;20029;-79
2021/07/02 09:00:05;;;;;;;6.53;3.85;;;;;;;29.60;42.37;100596.56;5033823;28;20483;-80
2021/07/02 09:02:32;;;;;;;6.55;4.00;;;;;;;29.35;42.96;100601.22;5033552;28;20036;-80
2021/07/02 09:04:58;;;;;;;4.25;3.70;;;;;;;29.03;43.52;100606.69;5033677;28;20025;-80
2021/07/02 09:07:24;;;;;;;4.60;3.90;;;;;;;28.77;44.30;100611.25;5034079;28;20370;-80
2021/07/02 09:09:56;;;;;;;5.15;4.43;;;;;;;28.65;44.55;100612.97;5033797;28;20072;-79
2021/07/02 09:12:25;;;;;;;4.97;4.13;;;;;;;28.64;44.69;100609.47;5034053;28;20045;-79
2021/07/02 09:15:06;;;;;;;5.35;4.05;;;;;;;28.55;44.91;100605.34;5043586;28;20483;-79
2021/07/02 09:17:33;;;;;;;7.72;4.25;;;;;;;28.38;45.14;100607.72;5051749;28;20052;-80
2021/07/02 09:20:10;;;;;;;6.28;4.30;;;;;;;28.32;45.06;100611.31;5053360;28;20391;-79
2021/07/02 09:22:41;;;;;;;5.43;4.25;;;;;;;28.25;45.55;100615.91;5053668;28;20028;-79
2021/07/02 09:25:11;;;;;;;5.25;4.30;;;;;;;28.16;45.58;100618.03;5053309;28;20391;-79
2021/07/02 09:27:39;;;;;;;8.02;4.72;;;;;;;28.17;44.96;100613.47;5040177;28;20127;-79
2021/07/02 09:30:12;;;;;;;9.07;6.57;;;;;;;27.90;44.72;100618.94;5032788;28;20037;-79
2021/07/02 09:32:43;;;;;;;11.38;7.03;;;;;;;28.26;43.31;100622.97;5041714;28;20047;-80
2021/07/02 09:35:10;;;;;;;10.68;6.25;;;;;;;28.19;43.76;100616.75;5039268;28;20021;-80
2021/07/02 09:37:42;;;;;;;11.00;6.18;;;;;;;27.78;44.10;100609.84;5033694;28;20386;-80
2021/07/02 09:40:12;;;;;;;10.25;6.85;;;;;;;27.79;44.24;100611.50;5052534;28;20440;-80
2021/07/02 09:42:38;;;;;;;7.10;6.05;;;;;;;27.84;44.22;100612.53;5052711;28;20051;-80
2021/07/02 09:45:09;;;;;;;9.23;7.15;;;;;;;28.04;43.84;100608.94;5051921;28;20056;-80
2021/07/02 09:47:36;;;;;;;9.07;6.88;;;;;;;28.22;43.45;100610.91;5052498;28;20391;-80
2021/07/02 09:50:34;;;;;;;9.13;6.55;;;;;;;28.17;43.62;100618.84;5052464;28;20500;-80
2021/07/02 09:53:01;;;;;;;7.78;6.50;;;;;;;28.21;43.58;100609.28;5039902;28;20041;-80
2021/07/02 09:55:28;;;;;;;7.55;5.97;;;;;;;27.91;43.86;100609.84;5051358;28;20113;-80
2021/07/02 09:58:04;;;;;;;8.23;6.32;;;;;;;27.87;44.26;100613.97;5052494;28;20051;-81
2021/07/02 10:00:31;;;;;;;10.45;6.35;;;;;;;27.61;44.16;100620.28;5039357;28;20041;-81
2021/07/02 10:02:59;;;;;;;8.45;7.32;;;;;;;27.44;44.68;100617.19;5052156;28;20286;-80
2021/07/02 10:05:25;;;;;;;15.10;7.32;;;;;;;27.45;44.68;100616.16;5046319;28;20474;-81
2021/07/02 10:07:59;;;;;;;7.40;6.57;;;;;;;27.38;44.39;100620.72;5039132;28;20037;-81
2021/07/02 10:10:25;;;;;;;8.15;6.20;;;;;;;27.45;43.99;100622.38;5032615;28;20379;-80
2021/07/02 10:12:53;;;;;;;9.85;7.45;;;;;;;27.32;44.37;100621.56;5051971;28;20021;-80
2021/07/02 10:15:18;;;;;;;12.70;7.28;;;;;;;27.30;44.42;100628.00;5051208;28;20025;-81
2021/07/02 10:17:44;;;;;;;9.40;6.80;;;;;;;27.24;44.18;100626.13;5051945;28;20102;-81
2021/07/02 10:20:10;;;;;;;7.72;5.95;;;;;;;27.23;44.06;100624.47;5051985;28;20033;-81
2021/07/02 10:22:37;;;;;;;10.35;6.68;;;;;;;27.46;44.28;100620.50;5051826;28;20056;-81
2021/07/02 10:25:03;;;;;;;8.13;6.18;;;;;;;27.79;43.49;100611.50;5051724;28;20090;-81
2021/07/02 10:27:29;;;;;;;10.43;6.82;;;;;;;27.48;43.38;100607.63;5051848;28;20044;-81
2021/07/02 10:29:57;;;;;;;8.05;6.38;;;;;;;27.27;44.23;100614.09;5045880;28;20037;-81
2021/07/02 10:32:24;;;;;;;9.73;7.30;;;;;;;27.16;44.42;100618.22;5031937;28;20033;-81
2021/07/02 10:34:49;;;;;;;10.85;8.07;;;;;;;27.18;44.42;100616.16;5032077;28;20032;-81
2021/07/02 10:37:15;;;;;;;11.55;6.60;;;;;;;27.35;44.13;100615.75;5031706;28;20025;-81
2021/07/02 10:39:45;;;;;;;8.60;6.57;;;;;;;27.24;44.39;100609.13;5031800;28;20096;-81
2021/07/02 10:42:13;;;;;;;8.82;6.90;;;;;;;27.32;44.63;100602.69;5031656;28;20028;-81
2021/07/02 10:44:54;;;;;;;7.30;6.28;;;;;;;27.40;44.05;100602.47;5033188;28;20067;-80
2021/07/02 10:47:23;;;;;;;7.93;6.38;;;;;;;27.57;43.83;100595.59;5040979;28;20506;-80
2021/07/02 10:49:51;;;;;;;9.80;6.05;;;;;;;27.85;43.53;100605.25;5051548;28;20044;-80
2021/07/02 10:52:26;;;;;;;10.07;6.32;;;;;;;27.99;43.09;100593.38;5051417;28;20533;-80
2021/07/02 10:54:53;;;;;;;6.60;6.00;;;;;;;27.90;43.33;100594.66;5049307;28;20033;-81
2021/07/02 10:57:25;;;;;;;8.05;6.20;;;;;;;28.14;42.91;100586.88;5037652;28;20037;-81
2021/07/02 10:59:53;;;;;;;8.95;5.75;;;;;;;28.05;43.05;100583.59;5031532;28;20030;-81
2021/07/02 11:02:23;;;;;;;8.23;6.10;;;;;;;28.23;42.71;100582.88;5043541;28;20566;-81
2021/07/02 11:04:49;;;;;;;8.23;6.03;;;;;;;28.14;42.83;100576.94;5051556;28;20379;-81
2021/07/02 11:07:15;;;;;;;8.35;5.40;;;;;;;28.20;42.52;100583.31;5037127;28;20029;-81
2021/07/02 11:09:55;;;;;;;9.05;5.75;;;;;;;28.18;42.66;100585.41;5031069;28;20526;-81
2021/07/02 11:12:35;;;;;;;10.25;5.65;;;;;;;28.14;43.15;100576.06;5033395;28;20026;-81
2021/07/02 11:15:08;;;;;;;6.63;5.75;;;;;;;28.11;42.44;100582.75;5031156;28;20033;-81
2021/07/02 11:17:34;;;;;;;5.90;5.40;;;;;;;28.27;42.09;100576.00;5030437;28;20105;-81